PWSweather.com
Personal Weather Stations
Station Observations
IHTIMAN1
Neighbourhood 1, IhtimanBG 2050

Neighbourhood 1IhtimanBG 2050

Lat: 42.436852, Lon: 23.817921

Elevation: 2066

Station Type: Oregon Scientific WMR968

http://ihtiman-meteo.com

High Low Average
Temperature 90.6°F32.6°C 57.2°F14.0°C 75.4°F24.1°C
Dew Point 55.5°F13.1°C 42.5°F5.8°C 49.5°F9.7°C
Winds 9.2 mph 14.8 kmh Calm Calm 4.0 mph S6.4 kmh S
Wind Gusts 15.0 mph24.1 kmh -- 5.0 mph8.0 kmh
Humidity 84% 22% 43%
Pressure 30.09 in1019.0 mb 29.97 in1014.9 mb -
Precipitation 0.00 in0.0 mm - -
Hour Temp Dew Point Humidity Winds Wind Gusts Pressure Precip Precip Rate Daily Precip Total
12:00 AM 71.9°F22.2°C 44.2°F6.8°C 37% 4.6 mph SE7.4 kmh SE 8.1 mph13.0 kmh 30.09 in1019.0 mb - 0.00 in0.0 mm 0.00 in0.0 mm
12:10 AM 71.7°F22.1°C 44.7°F7.1°C 38% 5.8 mph SE9.3 kmh SE 8.1 mph13.0 kmh 30.09 in1019.0 mb - 0.00 in0.0 mm 0.00 in0.0 mm
12:20 AM 71.4°F21.9°C 45.8°F7.7°C 40% 4.6 mph S7.4 kmh S 5.8 mph9.3 kmh 30.09 in1019.0 mb - 0.00 in0.0 mm 0.00 in0.0 mm
12:30 AM 70.2°F21.2°C 46.0°F7.8°C 42% 3.5 mph SSE5.6 kmh SSE 5.8 mph9.3 kmh 30.09 in1019.0 mb - 0.00 in0.0 mm 0.00 in0.0 mm
12:40 AM 69.6°F20.9°C 46.1°F7.8°C 43% 4.6 mph S7.4 kmh S 5.8 mph9.3 kmh 30.09 in1019.0 mb - 0.00 in0.0 mm 0.00 in0.0 mm
12:50 AM 69.1°F20.6°C 46.2°F7.9°C 44% 3.5 mph SE5.6 kmh SE 6.9 mph11.1 kmh 30.09 in1019.0 mb - 0.00 in0.0 mm 0.00 in0.0 mm
01:00 AM 69.3°F20.7°C 46.4°F8.0°C 44% 3.5 mph SSE5.6 kmh SSE 3.5 mph5.6 kmh 30.09 in1019.0 mb - 0.00 in0.0 mm 0.00 in0.0 mm
01:10 AM 69.1°F20.6°C 46.3°F7.9°C 44% 3.5 mph SE5.6 kmh SE 3.5 mph5.6 kmh 30.09 in1019.0 mb - 0.00 in0.0 mm 0.00 in0.0 mm
01:20 AM 68.7°F20.4°C 46.5°F8.1°C 45% 2.3 mph S3.7 kmh S 5.8 mph9.3 kmh 30.09 in1019.0 mb - 0.00 in0.0 mm 0.00 in0.0 mm
01:30 AM 68.4°F20.2°C 46.2°F7.9°C 45% 4.6 mph S7.4 kmh S 5.8 mph9.3 kmh 30.09 in1019.0 mb - 0.00 in0.0 mm 0.00 in0.0 mm
01:40 AM 68.5°F20.3°C 46.9°F8.3°C 46% 4.6 mph S7.4 kmh S 8.1 mph13.0 kmh 30.09 in1019.0 mb - 0.00 in0.0 mm 0.00 in0.0 mm
01:50 AM 68.7°F20.4°C 47.1°F8.4°C 46% 5.8 mph SSE9.3 kmh SSE 10.4 mph16.7 kmh 30.06 in1017.9 mb - 0.00 in0.0 mm 0.00 in0.0 mm
02:00 AM 69.1°F20.6°C 47.4°F8.6°C 46% 5.8 mph SE9.3 kmh SE 8.1 mph13.0 kmh 30.06 in1017.9 mb - 0.00 in0.0 mm 0.00 in0.0 mm
02:10 AM 69.1°F20.6°C 48.0°F8.9°C 47% 3.5 mph SE5.6 kmh SE 5.8 mph9.3 kmh 30.06 in1017.9 mb - 0.00 in0.0 mm 0.00 in0.0 mm
02:20 AM 68.5°F20.3°C 47.5°F8.6°C 47% 3.5 mph SSE5.6 kmh SSE 4.6 mph7.4 kmh 30.06 in1017.9 mb - 0.00 in0.0 mm 0.00 in0.0 mm
02:30 AM 67.8°F19.9°C 47.4°F8.6°C 48% 2.3 mph S3.7 kmh S 3.5 mph5.6 kmh 30.06 in1017.9 mb - 0.00 in0.0 mm 0.00 in0.0 mm
02:40 AM 67.1°F19.5°C 47.3°F8.5°C 49% Calm Calm 4.6 mph7.4 kmh 30.06 in1017.9 mb - 0.00 in0.0 mm 0.00 in0.0 mm
02:50 AM 66.6°F19.2°C 47.9°F8.8°C 51% 2.3 mph SSW3.7 kmh SSW 4.6 mph7.4 kmh 30.06 in1017.9 mb - 0.00 in0.0 mm 0.00 in0.0 mm
03:00 AM 66.0°F18.9°C 47.9°F8.8°C 52% 2.3 mph S3.7 kmh S 3.5 mph5.6 kmh 30.06 in1017.9 mb - 0.00 in0.0 mm 0.00 in0.0 mm
03:10 AM 65.4°F18.6°C 48.3°F9.1°C 54% 2.3 mph S3.7 kmh S 3.5 mph5.6 kmh 30.06 in1017.9 mb - 0.00 in0.0 mm 0.00 in0.0 mm
03:20 AM 64.8°F18.2°C 48.7°F9.3°C 56% Calm Calm -- 30.06 in1017.9 mb - 0.00 in0.0 mm 0.00 in0.0 mm
03:30 AM 64.2°F17.9°C 49.1°F9.5°C 58% Calm Calm -- 30.06 in1017.9 mb - 0.00 in0.0 mm 0.00 in0.0 mm
03:40 AM 63.5°F17.5°C 48.9°F9.4°C 59% Calm Calm -- 30.06 in1017.9 mb - 0.00 in0.0 mm 0.00 in0.0 mm
03:50 AM 62.8°F17.1°C 49.1°F9.5°C 61% Calm Calm -- 30.06 in1017.9 mb - 0.00 in0.0 mm 0.00 in0.0 mm
04:00 AM 62.3°F16.8°C 49.6°F9.8°C 63% Calm Calm -- 30.06 in1017.9 mb - 0.00 in0.0 mm 0.00 in0.0 mm
04:10 AM 61.9°F16.6°C 50.0°F10.0°C 65% Calm Calm -- 30.06 in1017.9 mb - 0.00 in0.0 mm 0.00 in0.0 mm
04:20 AM 61.5°F16.4°C 50.1°F10.1°C 66% Calm Calm -- 30.06 in1017.9 mb - 0.00 in0.0 mm 0.00 in0.0 mm
04:30 AM 61.2°F16.2°C 50.5°F10.3°C 68% Calm Calm 3.5 mph5.6 kmh 30.06 in1017.9 mb - 0.00 in0.0 mm 0.00 in0.0 mm
04:40 AM 61.0°F16.1°C 50.7°F10.4°C 69% Calm Calm -- 30.06 in1017.9 mb - 0.00 in0.0 mm 0.00 in0.0 mm
04:50 AM 60.5°F15.8°C 50.7°F10.4°C 70% 1.2 mph NW1.9 kmh NW 4.6 mph7.4 kmh 30.06 in1017.9 mb - 0.00 in0.0 mm 0.00 in0.0 mm
05:00 AM 60.1°F15.6°C 50.6°F10.3°C 71% Calm Calm -- 30.06 in1017.9 mb - 0.00 in0.0 mm 0.00 in0.0 mm
05:10 AM 59.7°F15.4°C 50.7°F10.4°C 72% Calm Calm -- 30.06 in1017.9 mb - 0.00 in0.0 mm 0.00 in0.0 mm
05:20 AM 59.4°F15.2°C 50.3°F10.2°C 72% Calm Calm -- 30.06 in1017.9 mb - 0.00 in0.0 mm 0.00 in0.0 mm
05:30 AM 58.8°F14.9°C 50.2°F10.1°C 73% 1.2 mph NW1.9 kmh NW 5.8 mph9.3 kmh 30.06 in1017.9 mb - 0.00 in0.0 mm 0.00 in0.0 mm
05:40 AM 57.9°F14.4°C 49.7°F9.8°C 74% 3.5 mph NW5.6 kmh NW 3.5 mph5.6 kmh 30.06 in1017.9 mb - 0.00 in0.0 mm 0.00 in0.0 mm
05:50 AM 57.4°F14.1°C 49.9°F9.9°C 76% 2.3 mph NW3.7 kmh NW 3.5 mph5.6 kmh 30.06 in1017.9 mb - 0.00 in0.0 mm 0.00 in0.0 mm
06:00 AM 57.2°F14.0°C 50.4°F10.2°C 78% Calm Calm -- 30.06 in1017.9 mb - 0.00 in0.0 mm 0.00 in0.0 mm
06:10 AM 57.2°F14.0°C 51.1°F10.6°C 80% Calm Calm 3.5 mph5.6 kmh 30.06 in1017.9 mb - 0.00 in0.0 mm 0.00 in0.0 mm
06:20 AM 57.4°F14.1°C 51.6°F10.9°C 81% 1.2 mph NW1.9 kmh NW -- 30.03 in1016.9 mb - 0.00 in0.0 mm 0.00 in0.0 mm
06:30 AM 57.4°F14.1°C 51.9°F11.1°C 82% Calm Calm -- 30.06 in1017.9 mb - 0.00 in0.0 mm 0.00 in0.0 mm
06:50 AM 57.7°F14.3°C 52.5°F11.4°C 83% Calm Calm -- 30.03 in1016.9 mb - 0.00 in0.0 mm 0.00 in0.0 mm
07:00 AM 58.1°F14.5°C 53.3°F11.8°C 84% Calm Calm -- 30.06 in1017.9 mb - 0.00 in0.0 mm 0.00 in0.0 mm
07:10 AM 59.2°F15.1°C 54.4°F12.4°C 84% Calm Calm -- 30.06 in1017.9 mb - 0.00 in0.0 mm 0.00 in0.0 mm
07:20 AM 60.6°F15.9°C 55.0°F12.8°C 82% Calm Calm -- 30.06 in1017.9 mb - 0.00 in0.0 mm 0.00 in0.0 mm
07:30 AM 62.2°F16.8°C 55.2°F12.9°C 78% Calm Calm -- 30.06 in1017.9 mb - 0.00 in0.0 mm 0.00 in0.0 mm
07:40 AM 64.5°F18.1°C 55.2°F12.9°C 72% Calm Calm -- 30.06 in1017.9 mb - 0.00 in0.0 mm 0.00 in0.0 mm
07:50 AM 66.1°F18.9°C 54.8°F12.7°C 67% Calm Calm -- 30.06 in1017.9 mb - 0.00 in0.0 mm 0.00 in0.0 mm
08:00 AM 67.3°F19.6°C 55.1°F12.8°C 65% Calm Calm -- 30.06 in1017.9 mb - 0.00 in0.0 mm 0.00 in0.0 mm
08:10 AM 68.3°F20.2°C 55.2°F12.9°C 63% Calm Calm -- 30.06 in1017.9 mb - 0.00 in0.0 mm 0.00 in0.0 mm
08:20 AM 69.0°F20.6°C 55.0°F12.8°C 61% 1.2 mph NW1.9 kmh NW 2.3 mph3.7 kmh 30.03 in1016.9 mb - 0.00 in0.0 mm 0.00 in0.0 mm
08:30 AM 70.3°F21.3°C 54.8°F12.7°C 58% Calm Calm -- 30.03 in1016.9 mb - 0.00 in0.0 mm 0.00 in0.0 mm
08:40 AM 71.9°F22.2°C 53.9°F12.2°C 53% 1.2 mph SE1.9 kmh SE 8.1 mph13.0 kmh 30.03 in1016.9 mb - 0.00 in0.0 mm 0.00 in0.0 mm
08:50 AM 74.3°F23.5°C 52.8°F11.6°C 47% 4.6 mph SSE7.4 kmh SSE 10.4 mph16.7 kmh 30.03 in1016.9 mb - 0.00 in0.0 mm 0.00 in0.0 mm
09:00 AM 75.3°F24.1°C 52.5°F11.4°C 45% 3.5 mph SE5.6 kmh SE 5.8 mph9.3 kmh 30.06 in1017.9 mb - 0.00 in0.0 mm 0.00 in0.0 mm
09:10 AM 76.3°F24.6°C 52.1°F11.2°C 43% 5.8 mph ENE9.3 kmh ENE 5.8 mph9.3 kmh 30.06 in1017.9 mb - 0.00 in0.0 mm 0.00 in0.0 mm
09:20 AM 77.0°F25.0°C 52.1°F11.2°C 42% 4.6 mph SE7.4 kmh SE 8.1 mph13.0 kmh 30.06 in1017.9 mb - 0.00 in0.0 mm 0.00 in0.0 mm
09:30 AM 77.2°F25.1°C 52.3°F11.3°C 42% 5.8 mph E9.3 kmh E 8.1 mph13.0 kmh 30.06 in1017.9 mb - 0.00 in0.0 mm 0.00 in0.0 mm
09:40 AM 77.7°F25.4°C 52.1°F11.2°C 41% 5.8 mph SE9.3 kmh SE 8.1 mph13.0 kmh 30.06 in1017.9 mb - 0.00 in0.0 mm 0.00 in0.0 mm
09:50 AM 78.4°F25.8°C 52.8°F11.6°C 41% 3.5 mph E5.6 kmh E 8.1 mph13.0 kmh 30.06 in1017.9 mb - 0.00 in0.0 mm 0.00 in0.0 mm
10:00 AM 78.9°F26.1°C 52.5°F11.4°C 40% 6.9 mph SE11.1 kmh SE 8.1 mph13.0 kmh 30.06 in1017.9 mb - 0.00 in0.0 mm 0.00 in0.0 mm
10:10 AM 79.5°F26.4°C 53.1°F11.7°C 40% 4.6 mph SE7.4 kmh SE 8.1 mph13.0 kmh 30.06 in1017.9 mb - 0.00 in0.0 mm 0.00 in0.0 mm
10:20 AM 80.3°F26.8°C 53.8°F12.1°C 40% 3.5 mph SE5.6 kmh SE 5.8 mph9.3 kmh 30.06 in1017.9 mb - 0.00 in0.0 mm 0.00 in0.0 mm
10:30 AM 81.5°F27.5°C 54.9°F12.7°C 40% 3.5 mph SE5.6 kmh SE 8.1 mph13.0 kmh 30.06 in1017.9 mb - 0.00 in0.0 mm 0.00 in0.0 mm
10:40 AM 81.3°F27.4°C 53.3°F11.8°C 38% 4.6 mph ESE7.4 kmh ESE 8.1 mph13.0 kmh 30.06 in1017.9 mb - 0.00 in0.0 mm 0.00 in0.0 mm
10:50 AM 81.8°F27.7°C 53.7°F12.1°C 38% 5.8 mph SE9.3 kmh SE 11.5 mph18.5 kmh 30.03 in1016.9 mb - 0.00 in0.0 mm 0.00 in0.0 mm
11:00 AM 82.6°F28.1°C 54.4°F12.4°C 38% 6.9 mph SE11.1 kmh SE 9.2 mph14.8 kmh 30.03 in1016.9 mb - 0.00 in0.0 mm 0.00 in0.0 mm
11:10 AM 83.8°F28.8°C 55.5°F13.1°C 38% 5.8 mph S9.3 kmh S 9.2 mph14.8 kmh 30.03 in1016.9 mb - 0.00 in0.0 mm 0.00 in0.0 mm
11:20 AM 83.4°F28.6°C 54.4°F12.4°C 37% 4.6 mph ESE7.4 kmh ESE 5.8 mph9.3 kmh 30.03 in1016.9 mb - 0.00 in0.0 mm 0.00 in0.0 mm
11:30 AM 84.2°F29.0°C 54.4°F12.4°C 36% 3.5 mph ESE5.6 kmh ESE 3.5 mph5.6 kmh 30.03 in1016.9 mb - 0.00 in0.0 mm 0.00 in0.0 mm
11:40 AM 84.7°F29.3°C 54.8°F12.7°C 36% 5.8 mph ESE9.3 kmh ESE 11.5 mph18.5 kmh 30.03 in1016.9 mb - 0.00 in0.0 mm 0.00 in0.0 mm
11:50 AM 85.2°F29.6°C 54.5°F12.5°C 35% 6.9 mph SSE11.1 kmh SSE 10.4 mph16.7 kmh 30.03 in1016.9 mb - 0.00 in0.0 mm 0.00 in0.0 mm
12:00 PM 84.9°F29.4°C 53.4°F11.9°C 34% 3.5 mph SE5.6 kmh SE 5.8 mph9.3 kmh 30.03 in1016.9 mb - 0.00 in0.0 mm 0.00 in0.0 mm
12:10 PM 85.8°F29.9°C 54.2°F12.3°C 34% 6.9 mph SE11.1 kmh SE 10.4 mph16.7 kmh 30.03 in1016.9 mb - 0.00 in0.0 mm 0.00 in0.0 mm
12:20 PM 85.2°F29.6°C 52.9°F11.6°C 33% 5.8 mph SE9.3 kmh SE 5.8 mph9.3 kmh 30.03 in1016.9 mb - 0.00 in0.0 mm 0.00 in0.0 mm
12:30 PM 86.6°F30.3°C 53.2°F11.8°C 32% 5.8 mph E9.3 kmh E 8.1 mph13.0 kmh 30.03 in1016.9 mb - 0.00 in0.0 mm 0.00 in0.0 mm
12:40 PM 87.1°F30.6°C 53.6°F12.0°C 32% 4.6 mph ESE7.4 kmh ESE 3.5 mph5.6 kmh 30.03 in1016.9 mb - 0.00 in0.0 mm 0.00 in0.0 mm
12:50 PM 87.1°F30.6°C 52.8°F11.6°C 31% 5.8 mph SSE9.3 kmh SSE 11.5 mph18.5 kmh 30.03 in1016.9 mb - 0.00 in0.0 mm 0.00 in0.0 mm
01:00 PM 88.6°F31.4°C 54.1°F12.3°C 31% 5.8 mph SE9.3 kmh SE 8.1 mph13.0 kmh 30.03 in1016.9 mb - 0.00 in0.0 mm 0.00 in0.0 mm
01:10 PM 88.3°F31.3°C 53.0°F11.7°C 30% 5.8 mph SE9.3 kmh SE 10.4 mph16.7 kmh 30.03 in1016.9 mb - 0.00 in0.0 mm 0.00 in0.0 mm
01:20 PM 87.8°F31.0°C 52.5°F11.4°C 30% 6.9 mph SE11.1 kmh SE 9.2 mph14.8 kmh 30.00 in1015.9 mb - 0.00 in0.0 mm 0.00 in0.0 mm
01:30 PM 88.0°F31.1°C 52.7°F11.5°C 30% 8.1 mph SE13.0 kmh SE 10.4 mph16.7 kmh 30.00 in1015.9 mb - 0.00 in0.0 mm 0.00 in0.0 mm
01:40 PM 88.5°F31.4°C 52.2°F11.2°C 29% 5.8 mph SE9.3 kmh SE 11.5 mph18.5 kmh 30.00 in1015.9 mb - 0.00 in0.0 mm 0.00 in0.0 mm
01:50 PM 88.9°F31.6°C 52.5°F11.4°C 29% 9.2 mph SE14.8 kmh SE 9.2 mph14.8 kmh 30.00 in1015.9 mb - 0.00 in0.0 mm 0.00 in0.0 mm
02:00 PM 88.8°F31.6°C 52.5°F11.4°C 29% 8.1 mph E13.0 kmh E 11.5 mph18.5 kmh 30.00 in1015.9 mb - 0.00 in0.0 mm 0.00 in0.0 mm
02:10 PM 89.5°F31.9°C 53.0°F11.7°C 29% 8.1 mph SE13.0 kmh SE 10.4 mph16.7 kmh 30.00 in1015.9 mb - 0.00 in0.0 mm 0.00 in0.0 mm
02:20 PM 89.6°F32.0°C 52.2°F11.2°C 28% 6.9 mph SE11.1 kmh SE 9.2 mph14.8 kmh 30.00 in1015.9 mb - 0.00 in0.0 mm 0.00 in0.0 mm
02:30 PM 89.2°F31.8°C 51.8°F11.0°C 28% 5.8 mph ESE9.3 kmh ESE 10.4 mph16.7 kmh 30.00 in1015.9 mb - 0.00 in0.0 mm 0.00 in0.0 mm
02:40 PM 89.6°F32.0°C 51.2°F10.7°C 27% 5.8 mph SE9.3 kmh SE 8.1 mph13.0 kmh 30.00 in1015.9 mb - 0.00 in0.0 mm 0.00 in0.0 mm
02:50 PM 89.4°F31.9°C 51.1°F10.6°C 27% 8.1 mph SSE13.0 kmh SSE 8.1 mph13.0 kmh 30.00 in1015.9 mb - 0.00 in0.0 mm 0.00 in0.0 mm
03:00 PM 89.6°F32.0°C 50.2°F10.1°C 26% 5.8 mph SSE9.3 kmh SSE 8.1 mph13.0 kmh 30.00 in1015.9 mb - 0.00 in0.0 mm 0.00 in0.0 mm
03:10 PM 90.1°F32.3°C 48.4°F9.1°C 24% 5.8 mph S9.3 kmh S 9.2 mph14.8 kmh 30.00 in1015.9 mb - 0.00 in0.0 mm 0.00 in0.0 mm
03:20 PM 90.6°F32.6°C 46.6°F8.1°C 22% 6.9 mph SSE11.1 kmh SSE 10.4 mph16.7 kmh 30.00 in1015.9 mb - 0.00 in0.0 mm 0.00 in0.0 mm
03:30 PM 89.9°F32.2°C 47.1°F8.4°C 23% 6.9 mph SE11.1 kmh SE 8.1 mph13.0 kmh 29.97 in1014.9 mb - 0.00 in0.0 mm 0.00 in0.0 mm
03:40 PM 90.1°F32.3°C 48.5°F9.2°C 24% 6.9 mph SSE11.1 kmh SSE 9.2 mph14.8 kmh 29.97 in1014.9 mb - 0.00 in0.0 mm 0.00 in0.0 mm
03:50 PM 90.4°F32.4°C 46.4°F8.0°C 22% 8.1 mph SSE13.0 kmh SSE 15.0 mph24.1 kmh 29.97 in1014.9 mb - 0.00 in0.0 mm 0.00 in0.0 mm
04:00 PM 89.4°F31.9°C 47.9°F8.8°C 24% 5.8 mph S9.3 kmh S 11.5 mph18.5 kmh 29.97 in1014.9 mb - 0.00 in0.0 mm 0.00 in0.0 mm
04:10 PM 90.1°F32.3°C 47.3°F8.5°C 23% 6.9 mph SE11.1 kmh SE 10.4 mph16.7 kmh 29.97 in1014.9 mb - 0.00 in0.0 mm 0.00 in0.0 mm
04:20 PM 89.8°F32.1°C 47.1°F8.4°C 23% 5.8 mph SE9.3 kmh SE 8.1 mph13.0 kmh 29.97 in1014.9 mb - 0.00 in0.0 mm 0.00 in0.0 mm
04:30 PM 88.8°F31.6°C 47.4°F8.6°C 24% 6.9 mph SE11.1 kmh SE 8.1 mph13.0 kmh 29.97 in1014.9 mb - 0.00 in0.0 mm 0.00 in0.0 mm
04:40 PM 89.5°F31.9°C 46.8°F8.2°C 23% 5.8 mph SE9.3 kmh SE 9.2 mph14.8 kmh 29.97 in1014.9 mb - 0.00 in0.0 mm 0.00 in0.0 mm
04:50 PM 88.3°F31.3°C 45.8°F7.7°C 23% 4.6 mph SE7.4 kmh SE 5.8 mph9.3 kmh 29.97 in1014.9 mb - 0.00 in0.0 mm 0.00 in0.0 mm
05:00 PM 87.8°F31.0°C 45.4°F7.4°C 23% 4.6 mph ESE7.4 kmh ESE 8.1 mph13.0 kmh 29.97 in1014.9 mb - 0.00 in0.0 mm 0.00 in0.0 mm
05:10 PM 86.6°F30.3°C 43.2°F6.2°C 22% 5.8 mph SE9.3 kmh SE 10.4 mph16.7 kmh 29.97 in1014.9 mb - 0.00 in0.0 mm 0.00 in0.0 mm
05:20 PM 85.7°F29.8°C 42.5°F5.8°C 22% 6.9 mph SE11.1 kmh SE 8.1 mph13.0 kmh 29.97 in1014.9 mb - 0.00 in0.0 mm 0.00 in0.0 mm
05:30 PM 85.5°F29.7°C 43.4°F6.3°C 23% 5.8 mph SE9.3 kmh SE 9.2 mph14.8 kmh 29.97 in1014.9 mb - 0.00 in0.0 mm 0.00 in0.0 mm
05:40 PM 85.2°F29.6°C 43.2°F6.2°C 23% 4.6 mph SE7.4 kmh SE 5.8 mph9.3 kmh 29.97 in1014.9 mb - 0.00 in0.0 mm 0.00 in0.0 mm
05:50 PM 84.9°F29.4°C 45.2°F7.3°C 25% 5.8 mph SE9.3 kmh SE 5.8 mph9.3 kmh 29.97 in1014.9 mb - 0.00 in0.0 mm 0.00 in0.0 mm
06:00 PM 84.7°F29.3°C 46.0°F7.8°C 26% 4.6 mph SSE7.4 kmh SSE 5.8 mph9.3 kmh 29.97 in1014.9 mb - 0.00 in0.0 mm 0.00 in0.0 mm
06:10 PM 84.5°F29.2°C 46.8°F8.2°C 27% 4.6 mph SE7.4 kmh SE 5.8 mph9.3 kmh 29.97 in1014.9 mb - 0.00 in0.0 mm 0.00 in0.0 mm
06:20 PM 84.1°F28.9°C 46.5°F8.1°C 27% 6.9 mph S11.1 kmh S 8.1 mph13.0 kmh 29.97 in1014.9 mb - 0.00 in0.0 mm 0.00 in0.0 mm
06:30 PM 83.2°F28.4°C 46.7°F8.2°C 28% 3.5 mph SSE5.6 kmh SSE 5.8 mph9.3 kmh 29.97 in1014.9 mb - 0.00 in0.0 mm 0.00 in0.0 mm
06:40 PM 82.3°F27.9°C 46.8°F8.2°C 29% 4.6 mph S7.4 kmh S 5.8 mph9.3 kmh 29.97 in1014.9 mb - 0.00 in0.0 mm 0.00 in0.0 mm
06:50 PM 81.3°F27.4°C 46.9°F8.3°C 30% 3.5 mph SE5.6 kmh SE 5.8 mph9.3 kmh 29.97 in1014.9 mb - 0.00 in0.0 mm 0.00 in0.0 mm
07:00 PM 80.4°F26.9°C 47.0°F8.3°C 31% 3.5 mph SE5.6 kmh SE 3.5 mph5.6 kmh 29.97 in1014.9 mb - 0.00 in0.0 mm 0.00 in0.0 mm
07:10 PM 79.7°F26.5°C 46.4°F8.0°C 31% 2.3 mph ESE3.7 kmh ESE 3.5 mph5.6 kmh 29.97 in1014.9 mb - 0.00 in0.0 mm 0.00 in0.0 mm
07:20 PM 79.1°F26.2°C 46.7°F8.2°C 32% 3.5 mph SE5.6 kmh SE 4.6 mph7.4 kmh 29.97 in1014.9 mb - 0.00 in0.0 mm 0.00 in0.0 mm
07:30 PM 78.4°F25.8°C 46.1°F7.8°C 32% 3.5 mph SE5.6 kmh SE 3.5 mph5.6 kmh 29.97 in1014.9 mb - 0.00 in0.0 mm 0.00 in0.0 mm
07:40 PM 77.9°F25.5°C 45.7°F7.6°C 32% Calm Calm 3.5 mph5.6 kmh 29.97 in1014.9 mb - 0.00 in0.0 mm 0.00 in0.0 mm
07:50 PM 77.4°F25.2°C 46.0°F7.8°C 33% Calm Calm -- 29.97 in1014.9 mb - 0.00 in0.0 mm 0.00 in0.0 mm
08:00 PM 76.6°F24.8°C 46.2°F7.9°C 34% Calm Calm 2.3 mph3.7 kmh 29.97 in1014.9 mb - 0.00 in0.0 mm 0.00 in0.0 mm
08:10 PM 75.9°F24.4°C 45.5°F7.5°C 34% Calm Calm -- 29.97 in1014.9 mb - 0.00 in0.0 mm 0.00 in0.0 mm
08:20 PM 75.2°F24.0°C 45.7°F7.6°C 35% 1.2 mph SSE1.9 kmh SSE 2.3 mph3.7 kmh 29.97 in1014.9 mb - 0.00 in0.0 mm 0.00 in0.0 mm
08:30 PM 74.5°F23.6°C 45.8°F7.7°C 36% 1.2 mph SSE1.9 kmh SSE 3.5 mph5.6 kmh 29.97 in1014.9 mb - 0.00 in0.0 mm 0.00 in0.0 mm
08:40 PM 73.8°F23.2°C 46.6°F8.1°C 38% 3.5 mph SE5.6 kmh SE 3.5 mph5.6 kmh 29.97 in1014.9 mb - 0.00 in0.0 mm 0.00 in0.0 mm
08:50 PM 72.9°F22.7°C 47.2°F8.4°C 40% 3.5 mph SE5.6 kmh SE 3.5 mph5.6 kmh 30.00 in1015.9 mb - 0.00 in0.0 mm 0.00 in0.0 mm
09:00 PM 72.1°F22.3°C 47.8°F8.8°C 42% 1.2 mph ESE1.9 kmh ESE 5.8 mph9.3 kmh 29.97 in1014.9 mb - 0.00 in0.0 mm 0.00 in0.0 mm
09:10 PM 72.0°F22.2°C 47.6°F8.7°C 42% 3.5 mph SE5.6 kmh SE 5.8 mph9.3 kmh 29.97 in1014.9 mb - 0.00 in0.0 mm 0.00 in0.0 mm
09:20 PM 72.6°F22.6°C 48.2°F9.0°C 42% 3.5 mph SE5.6 kmh SE 5.8 mph9.3 kmh 30.00 in1015.9 mb - 0.00 in0.0 mm 0.00 in0.0 mm
09:30 PM 73.4°F23.0°C 48.3°F9.1°C 41% 2.3 mph SE3.7 kmh SE 3.5 mph5.6 kmh 30.00 in1015.9 mb - 0.00 in0.0 mm 0.00 in0.0 mm
09:40 PM 73.2°F22.9°C 48.1°F8.9°C 41% 1.2 mph SE1.9 kmh SE 3.5 mph5.6 kmh 30.00 in1015.9 mb - 0.00 in0.0 mm 0.00 in0.0 mm
09:50 PM 72.9°F22.7°C 47.8°F8.8°C 41% 3.5 mph SSE5.6 kmh SSE 3.5 mph5.6 kmh 29.97 in1014.9 mb - 0.00 in0.0 mm 0.00 in0.0 mm
10:00 PM 73.0°F22.8°C 47.9°F8.8°C 41% 3.5 mph SE5.6 kmh SE 3.5 mph5.6 kmh 30.00 in1015.9 mb - 0.00 in0.0 mm 0.00 in0.0 mm
10:10 PM 73.3°F22.9°C 47.5°F8.6°C 40% 4.6 mph SE7.4 kmh SE 5.8 mph9.3 kmh 30.00 in1015.9 mb - 0.00 in0.0 mm 0.00 in0.0 mm
10:20 PM 73.6°F23.1°C 47.8°F8.8°C 40% 3.5 mph SE5.6 kmh SE 5.8 mph9.3 kmh 30.00 in1015.9 mb - 0.00 in0.0 mm 0.00 in0.0 mm
10:30 PM 73.4°F23.0°C 47.6°F8.7°C 40% 5.8 mph SE9.3 kmh SE 8.1 mph13.0 kmh 30.00 in1015.9 mb - 0.00 in0.0 mm 0.00 in0.0 mm
10:40 PM 73.7°F23.2°C 47.9°F8.8°C 40% 3.5 mph SE5.6 kmh SE 5.8 mph9.3 kmh 30.00 in1015.9 mb - 0.00 in0.0 mm 0.00 in0.0 mm
10:50 PM 73.5°F23.1°C 47.7°F8.7°C 40% 4.6 mph SE7.4 kmh SE 8.1 mph13.0 kmh 30.00 in1015.9 mb - 0.00 in0.0 mm 0.00 in0.0 mm
11:00 PM 73.2°F22.9°C 48.1°F8.9°C 41% 3.5 mph SE5.6 kmh SE 5.8 mph9.3 kmh 30.00 in1015.9 mb - 0.00 in0.0 mm 0.00 in0.0 mm
11:10 PM 72.7°F22.6°C 47.6°F8.7°C 41% 4.6 mph SSE7.4 kmh SSE 5.8 mph9.3 kmh 30.00 in1015.9 mb - 0.00 in0.0 mm 0.00 in0.0 mm
11:20 PM 72.1°F22.3°C 47.8°F8.8°C 42% 4.6 mph SE7.4 kmh SE 5.8 mph9.3 kmh 30.00 in1015.9 mb - 0.00 in0.0 mm 0.00 in0.0 mm
11:30 PM 71.8°F22.1°C 47.4°F8.6°C 42% 1.2 mph S1.9 kmh S 3.5 mph5.6 kmh 30.00 in1015.9 mb - 0.00 in0.0 mm 0.00 in0.0 mm
11:40 PM 70.9°F21.6°C 47.3°F8.5°C 43% Calm Calm -- 30.00 in1015.9 mb - 0.00 in0.0 mm 0.00 in0.0 mm
11:50 PM 70.1°F21.2°C 46.6°F8.1°C 43% Calm Calm -- 30.00 in1015.9 mb - 0.00 in0.0 mm 0.00 in0.0 mm